createdAt,value
2023-02-19T00:02:22.658Z,3.38
2023-02-19T00:04:49.788Z,3.58
2023-02-19T00:07:17.366Z,2.75
2023-02-19T00:09:44.661Z,2.80
2023-02-19T00:12:12.001Z,3.10
2023-02-19T00:14:39.178Z,2.80
2023-02-19T00:17:06.174Z,2.92
2023-02-19T00:19:33.221Z,3.63
2023-02-19T00:22:00.138Z,2.55
2023-02-19T00:24:27.103Z,3.55
2023-02-19T00:26:54.047Z,4.45
2023-02-19T00:29:22.051Z,3.10
2023-02-19T00:31:49.820Z,3.78
2023-02-19T00:34:16.879Z,5.43
2023-02-19T00:36:44.450Z,3.40
2023-02-19T00:39:15.261Z,3.20
2023-02-19T00:41:42.315Z,3.20
2023-02-19T00:44:11.518Z,3.30
2023-02-19T00:46:41.983Z,2.72
2023-02-19T00:49:15.896Z,3.05
2023-02-19T00:51:42.839Z,2.83
2023-02-19T00:54:11.326Z,3.25
2023-02-19T00:56:38.529Z,4.30
2023-02-19T00:59:05.947Z,3.58
2023-02-19T01:01:33.035Z,3.03
2023-02-19T01:04:00.264Z,2.60
2023-02-19T01:06:29.968Z,2.50
2023-02-19T01:08:57.007Z,2.80
2023-02-19T01:11:23.986Z,3.17
2023-02-19T01:13:51.178Z,3.25
2023-02-19T01:16:24.901Z,2.38
2023-02-19T01:18:52.001Z,2.50
2023-02-19T01:21:22.495Z,2.58
2023-02-19T01:23:50.984Z,2.45
2023-02-19T01:26:23.887Z,3.05
2023-02-19T01:28:50.868Z,3.10
2023-02-19T01:31:20.817Z,2.70
2023-02-19T01:33:50.487Z,3.22
2023-02-19T01:36:18.357Z,2.70
2023-02-19T01:38:45.518Z,2.67
2023-02-19T01:41:15.849Z,2.75
2023-02-19T01:44:12.772Z,2.38
2023-02-19T01:46:44.038Z,2.63
2023-02-19T01:49:29.031Z,2.75
2023-02-19T01:52:13.087Z,3.20
2023-02-19T01:54:42.996Z,3.08
2023-02-19T01:57:16.399Z,2.42
2023-02-19T01:59:44.014Z,4.68
2023-02-19T02:02:11.514Z,3.28
2023-02-19T02:04:38.857Z,1.77
2023-02-19T02:07:29.841Z,2.42
2023-02-19T02:10:15.803Z,3.33
2023-02-19T02:12:42.828Z,2.95
2023-02-19T02:15:10.009Z,4.22
2023-02-19T02:17:52.050Z,2.53
2023-02-19T02:20:58.217Z,3.13
2023-02-19T02:24:02.979Z,3.67
2023-02-19T02:26:45.505Z,2.55
2023-02-19T02:29:45.963Z,2.60
2023-02-19T02:32:20.079Z,2.15
2023-02-19T02:35:13.482Z,3.38
2023-02-19T02:37:44.277Z,2.28
2023-02-19T02:40:12.865Z,2.10
2023-02-19T02:42:40.582Z,2.33
2023-02-19T02:45:36.592Z,2.03
2023-02-19T02:48:37.047Z,2.20
2023-02-19T02:51:22.495Z,2.35
2023-02-19T02:54:23.282Z,2.00
2023-02-19T02:56:52.565Z,4.20
2023-02-19T02:59:25.040Z,1.92
2023-02-19T03:02:18.841Z,1.75
2023-02-19T03:05:14.146Z,2.28
2023-02-19T03:07:48.088Z,2.15
2023-02-19T03:10:31.218Z,1.80
2023-02-19T03:13:20.908Z,1.60
2023-02-19T03:16:21.083Z,1.58
2023-02-19T03:19:12.067Z,2.22
2023-02-19T03:21:42.276Z,1.58
2023-02-19T03:24:30.781Z,1.55
2023-02-19T03:27:01.453Z,1.70
2023-02-19T03:29:37.557Z,1.75
2023-02-19T03:32:24.092Z,1.50
2023-02-19T03:35:13.260Z,2.15
2023-02-19T03:38:10.202Z,1.65
2023-02-19T03:40:49.691Z,1.50
2023-02-19T03:43:35.020Z,1.80
2023-02-19T03:46:15.624Z,3.00
2023-02-19T03:49:01.900Z,1.70
2023-02-19T03:51:35.164Z,1.63
2023-02-19T03:54:35.302Z,1.70
2023-02-19T03:57:27.393Z,1.55
2023-02-19T04:02:57.911Z,2.33
2023-02-19T04:05:29.701Z,1.73
2023-02-19T04:08:17.020Z,1.95
2023-02-19T04:10:50.981Z,2.08
2023-02-19T04:13:31.943Z,2.55
2023-02-19T04:16:03.663Z,1.77
2023-02-19T04:21:00.758Z,2.20
2023-02-19T04:23:32.491Z,2.03
2023-02-19T04:26:01.286Z,1.88
2023-02-19T04:28:29.444Z,1.90
2023-02-19T04:30:56.539Z,1.35
2023-02-19T04:33:23.550Z,1.80
2023-02-19T04:35:50.428Z,1.58
2023-02-19T04:38:17.373Z,1.88
2023-02-19T04:40:44.380Z,1.70
2023-02-19T04:43:11.401Z,1.33
2023-02-19T04:45:39.090Z,1.63
2023-02-19T04:48:06.274Z,1.80
2023-02-19T04:50:33.303Z,1.67
2023-02-19T04:53:00.426Z,1.60
2023-02-19T04:55:27.503Z,1.73
2023-02-19T04:57:54.478Z,3.05
2023-02-19T05:00:21.711Z,1.80
2023-02-19T05:02:48.722Z,2.45
2023-02-19T05:05:16.389Z,1.77
2023-02-19T05:07:43.537Z,1.52
2023-02-19T05:10:10.492Z,1.50
2023-02-19T05:12:37.495Z,2.70
2023-02-19T05:15:04.843Z,1.85
2023-02-19T05:17:34.535Z,1.48
2023-02-19T05:20:01.633Z,2.17
2023-02-19T05:22:29.969Z,1.58
2023-02-19T05:24:56.921Z,1.75
2023-02-19T05:27:23.921Z,1.38
2023-02-19T05:29:50.916Z,3.30
2023-02-19T05:32:17.994Z,2.10
2023-02-19T05:34:44.989Z,1.67
2023-02-19T05:37:12.069Z,2.45
2023-02-19T05:39:39.057Z,3.53
2023-02-19T05:42:06.290Z,3.28
2023-02-19T05:44:33.221Z,2.15
2023-02-19T05:47:00.302Z,1.90
2023-02-19T05:49:27.913Z,1.80
2023-02-19T05:51:55.227Z,2.47
2023-02-19T05:54:22.163Z,1.67
2023-02-19T05:56:49.874Z,1.70
2023-02-19T05:59:23.368Z,1.88
2023-02-19T06:01:52.280Z,1.67
2023-02-19T06:04:20.452Z,1.40
2023-02-19T06:06:47.904Z,1.52
2023-02-19T06:09:15.064Z,2.65
2023-02-19T06:11:43.440Z,2.20
2023-02-19T06:14:13.760Z,1.83
2023-02-19T06:16:41.175Z,2.55
2023-02-19T06:19:08.306Z,2.35
2023-02-19T06:21:35.413Z,1.98
2023-02-19T06:24:07.591Z,1.85
2023-02-19T06:26:35.107Z,1.50
2023-02-19T06:29:02.110Z,1.98
2023-02-19T06:31:29.324Z,1.67
2023-02-19T06:33:56.391Z,2.50
2023-02-19T06:36:24.058Z,1.90
2023-02-19T06:38:51.505Z,1.73
2023-02-19T06:41:19.474Z,1.65
2023-02-19T06:43:46.741Z,1.80
2023-02-19T06:46:14.084Z,1.23
2023-02-19T06:48:45.611Z,1.65
2023-02-19T06:51:14.658Z,1.70
2023-02-19T06:53:41.732Z,2.45
2023-02-19T06:56:22.739Z,1.60
2023-02-19T06:58:49.770Z,2.30
2023-02-19T07:01:16.942Z,2.28
2023-02-19T07:03:43.999Z,1.80
2023-02-19T07:06:10.948Z,2.17
2023-02-19T07:08:38.102Z,2.50
2023-02-19T07:11:05.309Z,2.15
2023-02-19T07:13:32.611Z,1.50
2023-02-19T07:16:01.359Z,1.63
2023-02-19T07:18:30.108Z,2.13
2023-02-19T07:21:06.665Z,1.60
2023-02-19T07:23:33.908Z,1.52
2023-02-19T07:26:01.227Z,1.77
2023-02-19T07:28:28.330Z,1.77
2023-02-19T07:31:03.946Z,1.40
2023-02-19T07:33:31.190Z,1.45
2023-02-19T07:35:58.367Z,1.23
2023-02-19T07:38:26.589Z,1.40
2023-02-19T07:40:54.249Z,2.33
2023-02-19T07:43:23.914Z,1.70
2023-02-19T07:45:51.989Z,1.40
2023-02-19T07:48:19.519Z,1.70
2023-02-19T07:50:53.174Z,1.60
2023-02-19T07:53:21.391Z,1.30
2023-02-19T07:55:48.745Z,1.50
2023-02-19T07:58:15.943Z,1.60
2023-02-19T08:00:43.726Z,1.63
2023-02-19T08:03:11.297Z,2.13
2023-02-19T08:05:39.803Z,1.33
2023-02-19T08:08:12.768Z,1.38
2023-02-19T08:10:59.251Z,1.83
2023-02-19T08:13:28.098Z,1.15
2023-02-19T08:16:07.525Z,1.10
2023-02-19T08:18:42.092Z,1.13
2023-02-19T08:21:09.454Z,1.23
2023-02-19T08:23:37.016Z,1.55
2023-02-19T08:26:05.051Z,2.08
2023-02-19T08:28:32.901Z,1.63
2023-02-19T08:31:05.850Z,1.38
2023-02-19T08:33:32.993Z,1.02
2023-02-19T08:36:07.731Z,1.67
2023-02-19T08:38:36.643Z,1.58
2023-02-19T08:41:14.427Z,1.13
2023-02-19T08:43:42.732Z,1.30
2023-02-19T08:46:11.679Z,3.95
2023-02-19T08:48:39.774Z,1.45
2023-02-19T08:51:11.122Z,1.40
2023-02-19T08:53:40.627Z,1.63
2023-02-19T08:56:13.680Z,1.50
2023-02-19T08:58:40.976Z,1.95
2023-02-19T09:01:13.233Z,2.58
2023-02-19T09:03:41.219Z,2.03
2023-02-19T09:06:11.517Z,1.42
2023-02-19T09:08:39.118Z,2.05
2023-02-19T09:11:07.217Z,2.22
2023-02-19T09:13:34.417Z,1.65
2023-02-19T09:16:03.716Z,1.83
2023-02-19T09:18:31.210Z,2.33
2023-02-19T09:21:01.460Z,1.73
2023-02-19T09:23:29.017Z,1.90
2023-02-19T09:26:00.775Z,2.00
2023-02-19T09:30:55.372Z,2.00
2023-02-19T09:33:22.460Z,2.70
2023-02-19T09:35:49.494Z,1.80
2023-02-19T09:38:16.432Z,2.05
2023-02-19T09:40:43.412Z,1.73
2023-02-19T09:43:19.229Z,1.80
2023-02-19T09:45:47.356Z,1.88
2023-02-19T09:48:14.603Z,1.50
2023-02-19T09:50:49.239Z,2.30
2023-02-19T09:53:21.645Z,2.15
2023-02-19T09:55:49.373Z,1.60
2023-02-19T09:58:27.477Z,2.50
2023-02-19T10:00:57.045Z,3.03
2023-02-19T10:03:33.717Z,2.10
2023-02-19T10:06:11.959Z,3.35
2023-02-19T10:08:40.583Z,2.35
2023-02-19T10:11:11.683Z,3.78
2023-02-19T10:13:50.776Z,1.83
2023-02-19T10:16:25.359Z,2.00
2023-02-19T10:18:53.082Z,2.17
2023-02-19T10:21:26.321Z,3.08
2023-02-19T10:23:57.988Z,2.08
2023-02-19T10:26:28.191Z,1.67
2023-02-19T10:28:55.631Z,2.13
2023-02-19T10:31:25.660Z,1.70
2023-02-19T10:34:00.425Z,2.28
2023-02-19T10:36:33.800Z,2.10
2023-02-19T10:39:03.040Z,2.13
2023-02-19T10:41:31.407Z,1.70
2023-02-19T10:44:13.731Z,2.58
2023-02-19T10:46:50.883Z,1.90
2023-02-19T10:49:30.173Z,1.33
2023-02-19T10:52:02.456Z,1.48
2023-02-19T10:54:33.346Z,0.95
2023-02-19T10:57:18.734Z,1.23
2023-02-19T10:59:57.633Z,1.25
2023-02-19T11:02:28.271Z,1.48
2023-02-19T11:05:20.908Z,2.72
2023-02-19T11:07:56.369Z,1.30
2023-02-19T11:10:35.950Z,1.30
2023-02-19T11:13:08.944Z,1.85
2023-02-19T11:15:37.444Z,0.90
2023-02-19T11:18:22.181Z,1.10
2023-02-19T11:20:51.328Z,0.95
2023-02-19T11:23:23.349Z,1.02
2023-02-19T11:25:54.034Z,0.90
2023-02-19T11:28:33.008Z,0.93
2023-02-19T11:31:14.329Z,0.98
2023-02-19T11:34:00.312Z,1.00
2023-02-19T11:36:32.126Z,0.70
2023-02-19T11:42:07.806Z,1.05
2023-02-19T11:44:59.003Z,0.70
2023-02-19T11:47:43.786Z,0.70
2023-02-19T11:50:27.683Z,0.70
2023-02-19T11:53:22.136Z,0.50
2023-02-19T11:55:49.327Z,0.60
2023-02-19T11:58:51.741Z,0.30
2023-02-19T12:01:38.796Z,0.30
2023-02-19T12:04:27.338Z,0.35
2023-02-19T12:07:26.335Z,0.50
2023-02-19T12:10:13.546Z,0.30
2023-02-19T12:13:08.741Z,0.50
2023-02-19T12:15:49.336Z,0.65
2023-02-19T12:18:19.186Z,0.50
2023-02-19T12:21:22.030Z,0.50
2023-02-19T12:23:58.252Z,0.40
2023-02-19T12:26:54.808Z,0.32
2023-02-19T12:29:37.965Z,0.43
2023-02-19T12:32:30.731Z,1.00
2023-02-19T12:35:33.832Z,1.20
2023-02-19T12:38:25.647Z,0.60
2023-02-19T12:41:10.500Z,1.48
2023-02-19T12:43:41.973Z,2.10
2023-02-19T12:46:25.249Z,1.02
2023-02-19T12:49:02.615Z,0.98
2023-02-19T12:51:40.740Z,0.63
2023-02-19T12:54:23.833Z,1.73
2023-02-19T12:57:01.368Z,0.80
2023-02-19T12:59:35.118Z,0.85
2023-02-19T13:02:11.134Z,0.80
2023-02-19T13:05:04.458Z,0.90
2023-02-19T13:07:56.044Z,0.98
2023-02-19T13:10:32.114Z,0.80
2023-02-19T13:13:04.991Z,0.90
2023-02-19T13:15:49.024Z,1.00
2023-02-19T13:18:56.407Z,1.17
2023-02-19T13:21:50.012Z,0.90
2023-02-19T13:24:31.262Z,0.95
2023-02-19T13:27:08.758Z,0.90
2023-02-19T13:30:12.899Z,0.60
2023-02-19T13:32:58.934Z,1.00
2023-02-19T13:36:20.395Z,1.10
2023-02-19T13:38:50.119Z,0.90
2023-02-19T13:41:18.861Z,1.40
2023-02-19T13:43:47.096Z,1.00
2023-02-19T13:46:17.537Z,1.30
2023-02-19T13:48:45.098Z,1.27
2023-02-19T13:51:23.725Z,1.00
2023-02-19T13:53:59.728Z,0.75
2023-02-19T13:56:35.423Z,0.98
2023-02-19T13:59:46.098Z,0.80
2023-02-19T14:02:22.730Z,0.60
2023-02-19T14:04:52.072Z,3.10
2023-02-19T14:07:19.471Z,1.00
2023-02-19T14:09:47.025Z,0.82
2023-02-19T14:12:15.914Z,0.70
2023-02-19T14:14:48.395Z,0.70
2023-02-19T14:17:34.936Z,0.60
2023-02-19T14:20:17.594Z,0.82
2023-02-19T14:22:50.204Z,0.70
2023-02-19T14:25:29.416Z,0.65
2023-02-19T14:28:24.145Z,0.60
2023-02-19T14:30:58.886Z,0.63
2023-02-19T14:33:32.359Z,0.70
2023-02-19T14:36:26.007Z,0.50
2023-02-19T14:38:58.272Z,0.47
2023-02-19T14:41:28.758Z,0.35
2023-02-19T14:43:58.635Z,0.50
2023-02-19T14:46:32.452Z,0.50
2023-02-19T14:49:20.130Z,0.50
2023-02-19T14:51:52.408Z,0.50
2023-02-19T14:54:33.715Z,0.75
2023-02-19T14:57:03.306Z,0.65
2023-02-19T14:59:30.888Z,0.90
2023-02-19T15:02:17.966Z,0.85
2023-02-19T15:04:45.446Z,0.60
2023-02-19T15:07:21.608Z,0.70
2023-02-19T15:09:53.042Z,0.60
2023-02-19T15:12:28.979Z,0.63
2023-02-19T15:14:59.848Z,0.90
2023-02-19T15:17:30.241Z,0.50
2023-02-19T15:20:00.627Z,0.90
2023-02-19T15:22:31.938Z,0.65
2023-02-19T15:25:04.286Z,0.73
2023-02-19T15:27:33.033Z,0.85
2023-02-19T15:30:00.071Z,0.70
2023-02-19T15:32:28.716Z,0.60
2023-02-19T15:34:59.824Z,0.50
2023-02-19T15:37:30.132Z,0.77
2023-02-19T15:40:01.530Z,0.60
2023-02-19T15:42:30.876Z,0.60
2023-02-19T15:45:04.328Z,0.73
2023-02-19T15:47:37.263Z,0.68
2023-02-19T15:50:17.662Z,0.70
2023-02-19T15:53:07.113Z,0.57
2023-02-19T15:55:49.541Z,0.50
2023-02-19T15:58:27.813Z,0.68
2023-02-19T16:00:59.491Z,0.82
2023-02-19T16:03:29.842Z,0.30
2023-02-19T16:06:04.447Z,0.50
2023-02-19T16:08:34.258Z,0.98
2023-02-19T16:11:03.866Z,0.45
2023-02-19T16:13:33.583Z,0.47
2023-02-19T16:16:35.780Z,0.60
2023-02-19T16:19:03.208Z,0.50
2023-02-19T16:21:30.206Z,0.30
2023-02-19T16:24:05.260Z,0.35
2023-02-19T16:26:40.732Z,0.40
2023-02-19T16:29:28.950Z,0.50
2023-02-19T16:32:05.133Z,0.60
2023-02-19T16:34:44.013Z,0.30
2023-02-19T16:37:37.167Z,0.40
2023-02-19T16:40:13.629Z,0.50
2023-02-19T16:42:51.699Z,0.50
2023-02-19T16:45:19.143Z,0.50
2023-02-19T16:47:53.258Z,0.70
2023-02-19T16:50:25.394Z,0.63
2023-02-19T16:52:57.754Z,0.85
2023-02-19T16:55:25.321Z,0.45
2023-02-19T16:57:52.667Z,0.85
2023-02-19T17:00:25.498Z,0.73
2023-02-19T17:02:54.950Z,0.60
2023-02-19T17:05:24.154Z,1.05
2023-02-19T17:07:51.399Z,0.50
2023-02-19T17:10:28.360Z,0.50
2023-02-19T17:12:56.104Z,0.57
2023-02-19T17:15:23.763Z,0.90
2023-02-19T17:17:50.803Z,0.68
2023-02-19T17:20:17.983Z,0.70
2023-02-19T17:22:45.117Z,0.60
2023-02-19T17:25:12.212Z,0.70
2023-02-19T17:27:39.353Z,0.70
2023-02-19T17:30:26.602Z,0.60
2023-02-19T17:32:53.616Z,0.60
2023-02-19T17:35:21.166Z,1.00
2023-02-19T17:37:48.332Z,0.52
2023-02-19T17:40:33.227Z,1.30
2023-02-19T17:43:01.082Z,0.80
2023-02-19T17:45:28.445Z,0.70
2023-02-19T17:47:55.513Z,1.00
2023-02-19T17:50:29.306Z,0.80
2023-02-19T17:52:56.739Z,1.50
2023-02-19T17:55:24.321Z,0.95
2023-02-19T17:57:52.387Z,0.70
2023-02-19T18:00:25.258Z,0.70
2023-02-19T18:02:52.515Z,0.80
2023-02-19T18:05:19.836Z,0.65
2023-02-19T18:07:48.115Z,0.90
2023-02-19T18:10:18.487Z,0.80
2023-02-19T18:12:45.657Z,0.90
2023-02-19T18:15:21.085Z,0.70
2023-02-19T18:17:48.115Z,1.25
2023-02-19T18:20:17.343Z,0.80
2023-02-19T18:22:44.659Z,1.10
2023-02-19T18:25:11.755Z,0.80
2023-02-19T18:27:39.019Z,0.60
2023-02-19T18:30:07.279Z,0.73
2023-02-19T18:32:34.606Z,0.90
2023-02-19T18:35:01.852Z,0.80
2023-02-19T18:37:33.945Z,0.60
2023-02-19T18:40:01.869Z,0.75
2023-02-19T18:42:29.109Z,0.85
2023-02-19T18:44:56.497Z,1.00
2023-02-19T18:47:27.657Z,1.55
2023-02-19T18:50:01.100Z,1.35
2023-02-19T18:52:28.658Z,0.93
2023-02-19T18:54:57.427Z,0.80
2023-02-19T18:57:27.540Z,0.68
2023-02-19T18:59:54.818Z,0.68
2023-02-19T19:02:22.332Z,0.63
2023-02-19T19:04:51.961Z,0.80
2023-02-19T19:07:20.271Z,0.80
2023-02-19T19:09:47.677Z,0.93
2023-02-19T19:12:15.687Z,1.20
2023-02-19T19:14:42.921Z,0.80
2023-02-19T19:17:10.135Z,0.73
2023-02-19T19:19:37.281Z,0.70
2023-02-19T19:22:04.440Z,1.30
2023-02-19T19:24:31.419Z,0.70
2023-02-19T19:26:59.941Z,0.70
2023-02-19T19:29:28.286Z,0.88
2023-02-19T19:31:56.359Z,1.20
2023-02-19T19:34:25.832Z,2.47
2023-02-19T19:36:54.083Z,2.58
2023-02-19T19:39:21.172Z,2.25
2023-02-19T19:41:54.638Z,2.15
2023-02-19T19:44:22.272Z,2.28
2023-02-19T19:46:49.705Z,1.35
2023-02-19T19:49:18.622Z,1.80
2023-02-19T19:51:45.910Z,1.77
2023-02-19T19:54:13.390Z,2.05
2023-02-19T19:56:46.406Z,1.90
2023-02-19T19:59:16.413Z,2.13
2023-02-19T20:01:54.829Z,1.48
2023-02-19T20:04:23.284Z,1.33
2023-02-19T20:06:50.625Z,1.67
2023-02-19T20:09:18.945Z,1.55
2023-02-19T20:11:52.529Z,1.92
2023-02-19T20:14:31.905Z,1.30
2023-02-19T20:17:02.728Z,2.38
2023-02-19T20:19:39.098Z,3.30
2023-02-19T20:22:11.146Z,1.67
2023-02-19T20:24:44.248Z,1.92
2023-02-19T20:27:15.808Z,2.20
2023-02-19T20:29:45.296Z,2.95
2023-02-19T20:32:22.132Z,3.28
2023-02-19T20:34:49.558Z,2.92
2023-02-19T20:37:18.017Z,3.05
2023-02-19T20:39:45.611Z,2.78
2023-02-19T20:42:16.713Z,2.47
2023-02-19T20:44:45.695Z,2.05
2023-02-19T20:47:15.426Z,3.92
2023-02-19T20:49:46.484Z,3.28
2023-02-19T20:52:16.569Z,2.78
2023-02-19T20:54:45.033Z,2.60
2023-02-19T20:57:16.385Z,3.42
2023-02-19T20:59:44.384Z,5.72
2023-02-19T21:02:21.112Z,2.03
2023-02-19T21:04:48.782Z,3.35
2023-02-19T21:07:17.107Z,2.95
2023-02-19T21:09:44.586Z,2.47
2023-02-19T21:12:12.806Z,2.72
2023-02-19T21:14:41.919Z,2.53
2023-02-19T21:17:11.036Z,1.95
2023-02-19T21:19:38.298Z,3.60
2023-02-19T21:22:06.603Z,2.65
2023-02-19T21:24:33.894Z,2.10
2023-02-19T21:27:02.548Z,2.75
2023-02-19T21:29:29.682Z,2.60
2023-02-19T21:31:58.818Z,3.15
2023-02-19T21:34:29.427Z,3.78
2023-02-19T21:36:58.011Z,2.30
2023-02-19T21:39:26.532Z,2.08
2023-02-19T21:41:53.972Z,2.80
2023-02-19T21:44:21.782Z,2.85
2023-02-19T21:46:49.687Z,3.70
2023-02-19T21:49:17.849Z,2.60
2023-02-19T21:51:48.042Z,3.67
2023-02-19T21:54:18.720Z,3.53
2023-02-19T21:56:47.304Z,2.90
2023-02-19T21:59:14.864Z,2.90
2023-02-19T22:01:43.574Z,3.78
2023-02-19T22:04:15.451Z,3.17
2023-02-19T22:09:11.552Z,3.65
2023-02-19T22:11:38.607Z,3.63
2023-02-19T22:14:05.976Z,3.55
2023-02-19T22:16:35.131Z,2.85
2023-02-19T22:19:02.778Z,3.90
2023-02-19T22:21:32.620Z,4.78
2023-02-19T22:24:01.339Z,2.95
2023-02-19T22:26:32.315Z,4.03
2023-02-19T22:29:00.151Z,3.47
2023-02-19T22:31:28.899Z,3.35
2023-02-19T22:33:56.420Z,3.45
2023-02-19T22:36:26.364Z,4.32
2023-02-19T22:38:53.542Z,3.00
2023-02-19T22:41:22.855Z,3.08
2023-02-19T22:43:50.318Z,3.17
2023-02-19T22:46:20.849Z,5.03
2023-02-19T22:48:48.561Z,3.80
2023-02-19T22:51:19.754Z,3.33
2023-02-19T22:53:55.821Z,2.90
2023-02-19T22:56:25.729Z,4.00
2023-02-19T22:58:54.008Z,4.38
2023-02-19T23:01:21.574Z,4.10
2023-02-19T23:03:50.696Z,3.63
2023-02-19T23:06:21.684Z,3.25
2023-02-19T23:08:49.014Z,3.57
2023-02-19T23:11:26.864Z,4.00
2023-02-19T23:13:54.209Z,3.45
2023-02-19T23:16:25.085Z,3.53
2023-02-19T23:18:52.721Z,3.93
2023-02-19T23:21:21.120Z,3.85
2023-02-19T23:23:48.682Z,3.35
2023-02-19T23:26:16.360Z,4.20
2023-02-19T23:28:44.614Z,3.75
2023-02-19T23:31:12.950Z,3.72
2023-02-19T23:33:40.627Z,3.78
2023-02-19T23:36:09.029Z,3.65
2023-02-19T23:38:36.548Z,4.38
2023-02-19T23:41:08.379Z,3.83
2023-02-19T23:46:06.767Z,2.88
2023-02-19T23:48:34.281Z,3.38
2023-02-19T23:51:01.651Z,3.80
2023-02-19T23:53:28.793Z,3.80
2023-02-19T23:55:56.049Z,3.10
2023-02-19T23:58:23.136Z,2.90
